createdAt,value
2018-02-18T00:04:02.038Z,102301.37
2018-02-18T00:09:03.472Z,102304.66
2018-02-18T00:14:04.891Z,102296.59
2018-02-18T00:19:06.226Z,102307.64
2018-02-18T00:24:07.556Z,102311.64
2018-02-18T00:29:08.889Z,102312.34
2018-02-18T00:34:10.294Z,102312.30
2018-02-18T00:39:11.747Z,102311.31
2018-02-18T00:44:13.084Z,102317.59
2018-02-18T00:49:14.467Z,102328.66
2018-02-18T00:54:15.821Z,102328.23
2018-02-18T00:59:17.886Z,102321.73
2018-02-18T01:04:19.323Z,102325.24
2018-02-18T01:09:21.384Z,102325.50
2018-02-18T01:14:22.729Z,102318.67
2018-02-18T01:19:24.856Z,102312.89
2018-02-18T01:24:26.165Z,102311.86
2018-02-18T01:29:27.497Z,102326.23
2018-02-18T01:34:28.907Z,102322.61
2018-02-18T01:39:30.979Z,102320.98
2018-02-18T01:44:32.311Z,102327.89
2018-02-18T01:49:33.648Z,102325.95
2018-02-18T01:54:35.327Z,102324.76
2018-02-18T01:59:36.644Z,102323.33
2018-02-18T02:04:38.000Z,102324.56
2018-02-18T02:09:39.459Z,102324.21
2018-02-18T02:14:41.583Z,102317.73
2018-02-18T02:19:42.950Z,102324.12
2018-02-18T02:24:45.043Z,102322.52
2018-02-18T02:29:46.429Z,102320.84
2018-02-18T02:34:47.791Z,102319.25
2018-02-18T02:39:49.153Z,102321.56
2018-02-18T02:44:50.465Z,102303.66
2018-02-18T02:49:51.879Z,102313.52
2018-02-18T02:54:53.304Z,102319.14
2018-02-18T02:59:54.642Z,102321.77
2018-02-18T03:04:55.997Z,102314.71
2018-02-18T03:09:57.363Z,102313.38
2018-02-18T03:14:58.767Z,102317.28
2018-02-18T03:20:00.158Z,102304.42
2018-02-18T03:25:02.319Z,102308.52
2018-02-18T03:30:03.654Z,102308.53
2018-02-18T03:35:05.899Z,102312.94
2018-02-18T03:40:07.248Z,102314.37
2018-02-18T03:45:09.338Z,102315.61
2018-02-18T03:50:10.732Z,102318.73
2018-02-18T03:55:12.153Z,102322.64
2018-02-18T04:00:20.467Z,102320.06
2018-02-18T04:05:21.905Z,102331.23
2018-02-18T04:10:23.242Z,102324.80
2018-02-18T04:15:24.699Z,102319.85
2018-02-18T04:20:26.262Z,102321.59
2018-02-18T04:25:27.716Z,102317.98
2018-02-18T04:30:34.039Z,102320.30
2018-02-18T04:35:35.600Z,102325.06
2018-02-18T04:40:37.094Z,102328.31
2018-02-18T04:45:38.477Z,102328.37
2018-02-18T04:50:39.901Z,102325.44
2018-02-18T04:55:42.891Z,102329.95
2018-02-18T05:00:44.399Z,102333.89
2018-02-18T05:05:45.950Z,102333.23
2018-02-18T05:10:47.469Z,102334.80
2018-02-18T05:15:48.996Z,102320.41
2018-02-18T05:20:50.504Z,102331.19
2018-02-18T05:25:52.064Z,102332.52
2018-02-18T05:30:53.633Z,102328.06
2018-02-18T05:35:55.186Z,102335.14
2018-02-18T05:40:56.742Z,102331.91
2018-02-18T05:45:58.315Z,102344.45
2018-02-18T05:51:00.559Z,102340.28
2018-02-18T05:56:02.089Z,102337.55
2018-02-18T06:01:03.619Z,102353.62
2018-02-18T06:06:05.106Z,102348.55
2018-02-18T06:11:06.650Z,102346.11
2018-02-18T06:16:08.187Z,102348.54
2018-02-18T06:21:09.764Z,102342.27
2018-02-18T06:26:16.652Z,102346.86
2018-02-18T06:31:18.296Z,102353.13
2018-02-18T06:36:20.550Z,102345.52
2018-02-18T06:41:22.189Z,102331.03
2018-02-18T06:46:23.802Z,102343.27
2018-02-18T06:51:26.120Z,102338.62
2018-02-18T06:56:27.534Z,102345.29
2018-02-18T07:01:29.096Z,102335.15
2018-02-18T07:06:31.364Z,102341.70
2018-02-18T07:11:32.802Z,102340.52
2018-02-18T07:16:35.064Z,102337.47
2018-02-18T07:21:36.462Z,102335.60
2018-02-18T07:26:37.964Z,102335.83
2018-02-18T07:31:40.366Z,102341.37
2018-02-18T07:36:41.944Z,102338.67
2018-02-18T07:41:43.644Z,102339.92
2018-02-18T07:46:45.111Z,102343.00
2018-02-18T07:51:46.975Z,102343.80
2018-02-18T07:56:48.492Z,102337.08
2018-02-18T08:01:50.709Z,102345.00
2018-02-18T08:06:52.920Z,102337.60
2018-02-18T08:11:54.502Z,102344.64
2018-02-18T08:16:56.060Z,102342.17
2018-02-18T08:21:57.464Z,102331.16
2018-02-18T08:26:59.057Z,102335.77
2018-02-18T08:32:01.228Z,102336.70
2018-02-18T08:37:02.712Z,102339.34
2018-02-18T08:42:04.255Z,102350.08
2018-02-18T08:47:05.712Z,102345.25
2018-02-18T08:52:07.284Z,102340.88
2018-02-18T08:57:08.934Z,102337.44
2018-02-18T09:02:10.494Z,102339.16
2018-02-18T09:07:12.113Z,102342.48
2018-02-18T09:12:13.693Z,102342.00
2018-02-18T09:17:15.186Z,102337.06
2018-02-18T09:22:16.785Z,102341.41
2018-02-18T09:27:18.206Z,102339.05
2018-02-18T09:32:19.779Z,102339.91
2018-02-18T09:37:21.347Z,102341.66
2018-02-18T09:42:22.899Z,102344.80
2018-02-18T09:47:25.145Z,102349.70
2018-02-18T09:52:26.652Z,102354.42
2018-02-18T09:57:28.207Z,102355.82
2018-02-18T10:02:30.497Z,102347.76
2018-02-18T10:07:32.020Z,102341.53
2018-02-18T10:12:34.309Z,102347.70
2018-02-18T10:17:36.641Z,102351.12
2018-02-18T10:22:38.183Z,102351.33
2018-02-18T10:27:40.606Z,102349.69
2018-02-18T10:32:42.340Z,102336.47
2018-02-18T10:37:44.687Z,102332.81
2018-02-18T10:42:46.192Z,102331.64
2018-02-18T10:47:47.823Z,102333.52
2018-02-18T10:52:49.400Z,102328.28
2018-02-18T10:57:50.802Z,102324.03
2018-02-18T11:02:52.319Z,102326.02
2018-02-18T11:07:53.863Z,102327.40
2018-02-18T11:12:55.430Z,102328.84
2018-02-18T11:17:57.996Z,102329.74
2018-02-18T11:22:59.597Z,102315.83
2018-02-18T11:28:01.244Z,102316.80
2018-02-18T11:33:02.849Z,102308.60
2018-02-18T11:38:04.267Z,102314.73
2018-02-18T11:43:05.840Z,102309.57
2018-02-18T11:48:07.394Z,102301.89
2018-02-18T11:53:08.962Z,102296.33
2018-02-18T11:58:10.562Z,102299.87
2018-02-18T12:03:12.138Z,102297.70
2018-02-18T12:08:13.681Z,102282.98
2018-02-18T12:13:15.932Z,102286.01
2018-02-18T12:18:17.481Z,102280.80
2018-02-18T12:23:18.854Z,102270.39
2018-02-18T12:28:20.451Z,102271.28
2018-02-18T12:33:21.974Z,102270.41
2018-02-18T12:38:24.241Z,102260.84
2018-02-18T12:43:25.826Z,102256.94
2018-02-18T12:48:27.418Z,102251.25
2018-02-18T12:53:28.991Z,102255.18
2018-02-18T12:58:30.567Z,102246.02
2018-02-18T13:03:32.140Z,102236.84
2018-02-18T13:08:34.542Z,102217.67
2018-02-18T13:13:36.098Z,102214.61
2018-02-18T13:18:37.629Z,102213.84
2018-02-18T13:23:39.201Z,102216.06
2018-02-18T13:28:40.753Z,102210.38
2018-02-18T13:33:43.029Z,102204.31
2018-02-18T13:38:44.551Z,102201.25
2018-02-18T13:43:46.861Z,102179.02
2018-02-18T13:48:49.157Z,102174.61
2018-02-18T13:53:50.665Z,102175.44
2018-02-18T13:58:52.936Z,102176.30
2018-02-18T14:03:54.466Z,102179.70
2018-02-18T14:08:56.210Z,102171.44
2018-02-18T14:13:57.832Z,102163.25
2018-02-18T14:18:59.482Z,102163.28
2018-02-18T14:24:01.112Z,102165.81
2018-02-18T14:29:02.669Z,102162.27
2018-02-18T14:34:04.199Z,102160.60
2018-02-18T14:39:05.712Z,102166.31
2018-02-18T14:44:25.530Z,102161.22
2018-02-18T14:49:45.303Z,102172.14
2018-02-18T15:00:33.428Z,102159.11
2018-02-18T15:05:34.940Z,102158.66
2018-02-18T15:10:37.210Z,102155.65
2018-02-18T15:15:38.842Z,102155.64
2018-02-18T15:20:41.144Z,102157.80
2018-02-18T15:25:42.843Z,102166.50
2018-02-18T15:30:45.139Z,102159.52
2018-02-18T15:35:46.751Z,102151.27
2018-02-18T15:40:49.661Z,102147.38
2018-02-18T15:45:51.279Z,102145.66
2018-02-18T15:50:52.889Z,102152.17
2018-02-18T15:55:54.520Z,102148.27
2018-02-18T16:00:56.011Z,102140.42
2018-02-18T16:05:57.627Z,102135.64
2018-02-18T16:10:59.205Z,102130.02
2018-02-18T16:16:00.839Z,102126.53
2018-02-18T16:21:02.388Z,102133.92
2018-02-18T16:26:04.002Z,102125.64
2018-02-18T16:31:06.380Z,102122.09
2018-02-18T16:36:07.937Z,102131.16
2018-02-18T16:41:10.306Z,102122.41
2018-02-18T16:46:11.826Z,102128.39
2018-02-18T16:51:13.464Z,102114.85
2018-02-18T16:56:15.007Z,102112.62
2018-02-18T17:01:16.537Z,102118.09
2018-02-18T17:06:18.088Z,102123.16
2018-02-18T17:11:19.719Z,102114.86
2018-02-18T17:16:21.309Z,102110.84
2018-02-18T17:21:22.956Z,102104.27
2018-02-18T17:26:24.542Z,102104.19
2018-02-18T17:31:26.202Z,102095.87
2018-02-18T17:36:27.776Z,102094.86
2018-02-18T17:41:29.411Z,102098.23
2018-02-18T17:46:31.024Z,102098.19
2018-02-18T17:51:32.672Z,102097.68
2018-02-18T17:56:34.205Z,102100.56
2018-02-18T18:01:35.798Z,102111.23
2018-02-18T18:06:37.330Z,102094.69
2018-02-18T18:11:38.861Z,102105.01
2018-02-18T18:16:40.395Z,102110.98
2018-02-18T18:21:41.815Z,102112.54
2018-02-18T18:26:44.402Z,102113.02
2018-02-18T18:31:45.983Z,102116.19
2018-02-18T18:36:47.369Z,102108.25
2018-02-18T18:41:48.732Z,102087.20
2018-02-18T18:46:50.170Z,102094.62
2018-02-18T18:51:51.701Z,102103.33
2018-02-18T18:56:53.254Z,102086.41
2018-02-18T19:01:54.830Z,102093.78
2018-02-18T19:06:57.156Z,102080.89
2018-02-18T19:11:58.782Z,102079.33
2018-02-18T19:17:00.387Z,102073.68
2018-02-18T19:22:01.957Z,102064.56
2018-02-18T19:27:03.512Z,102061.66
2018-02-18T19:32:05.067Z,102060.13
2018-02-18T19:37:06.415Z,102040.43
2018-02-18T19:42:08.820Z,102049.18
2018-02-18T19:47:10.377Z,102037.53
2018-02-18T19:52:12.669Z,102034.52
2018-02-18T19:57:14.241Z,102028.56
2018-02-18T20:02:15.821Z,102025.55
2018-02-18T20:07:17.342Z,102015.18
2018-02-18T20:12:18.701Z,102019.92
2018-02-18T20:17:20.279Z,102016.48
2018-02-18T20:22:21.881Z,102005.98
2018-02-18T20:27:23.500Z,102008.59
2018-02-18T20:32:25.153Z,102001.29
2018-02-18T20:37:26.774Z,101996.97
2018-02-18T20:42:29.087Z,102002.64
2018-02-18T20:47:30.779Z,101997.98
2018-02-18T20:52:32.487Z,101999.75
2018-02-18T20:57:34.037Z,102001.97
2018-02-18T21:02:35.479Z,101997.20
2018-02-18T21:07:37.190Z,101992.87
2018-02-18T21:12:38.539Z,101996.77
2018-02-18T21:17:40.078Z,101992.49
2018-02-18T21:22:41.603Z,101997.23
2018-02-18T21:27:43.290Z,101993.41
2018-02-18T21:32:44.824Z,101994.69
2018-02-18T21:37:46.453Z,101990.80
2018-02-18T21:42:48.060Z,101988.15
2018-02-18T21:47:49.870Z,101988.61
2018-02-18T21:52:51.388Z,101988.23
2018-02-18T21:57:52.829Z,101983.48
2018-02-18T22:02:55.096Z,101978.69
2018-02-18T22:07:56.663Z,101986.89
2018-02-18T22:12:58.255Z,101984.62
2018-02-18T22:17:59.912Z,101978.82
2018-02-18T22:23:02.179Z,101972.16
2018-02-18T22:28:03.800Z,101973.58
2018-02-18T22:33:05.348Z,101983.58
2018-02-18T22:38:06.703Z,101980.12
2018-02-18T22:43:08.341Z,101969.30
2018-02-18T22:48:09.820Z,101980.06
2018-02-18T22:53:11.392Z,101978.36
2018-02-18T22:58:13.655Z,101972.76
2018-02-18T23:03:15.186Z,101971.50
2018-02-18T23:08:16.852Z,101971.52
2018-02-18T23:13:18.188Z,101968.02
2018-02-18T23:18:20.434Z,101971.89
2018-02-18T23:23:22.191Z,101971.09
2018-02-18T23:28:24.491Z,101965.45
2018-02-18T23:33:25.845Z,101968.02
2018-02-18T23:38:27.379Z,101966.70
2018-02-18T23:43:28.911Z,101963.16
2018-02-18T23:48:30.474Z,101951.70
2018-02-18T23:53:32.536Z,101960.14
2018-02-18T23:58:33.983Z,101961.70
